sensor_id;sensor_type;location;lat;lon;timestamp;P1;durP1;ratioP1;P2;durP2;ratioP2
6249;SDS011;3158;52.148;11.568;2023-07-31T00:00:35;0.43;;;0.43;;
6249;SDS011;3158;52.148;11.568;2023-07-31T00:05:37;2.45;;;0.57;;
6249;SDS011;3158;52.148;11.568;2023-07-31T00:10:38;3.40;;;0.40;;
6249;SDS011;3158;52.148;11.568;2023-07-31T00:15:39;1.17;;;0.40;;
6249;SDS011;3158;52.148;11.568;2023-07-31T00:20:40;4.30;;;0.60;;
6249;SDS011;3158;52.148;11.568;2023-07-31T00:25:41;0.30;;;0.30;;
6249;SDS011;3158;52.148;11.568;2023-07-31T00:30:42;0.30;;;0.30;;
6249;SDS011;3158;52.148;11.568;2023-07-31T00:35:43;1.83;;;0.38;;
6249;SDS011;3158;52.148;11.568;2023-07-31T00:40:44;0.52;;;0.35;;
6249;SDS011;3158;52.148;11.568;2023-07-31T00:45:46;2.70;;;0.50;;
6249;SDS011;3158;52.148;11.568;2023-07-31T00:50:47;0.25;;;0.25;;
6249;SDS011;3158;52.148;11.568;2023-07-31T00:55:49;0.85;;;0.50;;
6249;SDS011;3158;52.148;11.568;2023-07-31T01:00:50;1.42;;;0.30;;
6249;SDS011;3158;52.148;11.568;2023-07-31T01:11:09;0.40;;;0.40;;
6249;SDS011;3158;52.148;11.568;2023-07-31T01:16:13;2.13;;;0.52;;
6249;SDS011;3158;52.148;11.568;2023-07-31T01:26:21;0.30;;;0.30;;
6249;SDS011;3158;52.148;11.568;2023-07-31T01:31:24;1.52;;;0.30;;
6249;SDS011;3158;52.148;11.568;2023-07-31T01:36:25;0.30;;;0.30;;
6249;SDS011;3158;52.148;11.568;2023-07-31T01:41:27;0.77;;;0.40;;
6249;SDS011;3158;52.148;11.568;2023-07-31T01:46:28;0.50;;;0.50;;
6249;SDS011;3158;52.148;11.568;2023-07-31T01:51:30;0.30;;;0.20;;
6249;SDS011;3158;52.148;11.568;2023-07-31T01:56:34;0.30;;;0.30;;
6249;SDS011;3158;52.148;11.568;2023-07-31T02:01:35;0.95;;;0.45;;
6249;SDS011;3158;52.148;11.568;2023-07-31T02:06:39;0.20;;;0.20;;
6249;SDS011;3158;52.148;11.568;2023-07-31T02:11:40;0.30;;;0.30;;
6249;SDS011;3158;52.148;11.568;2023-07-31T02:16:41;0.40;;;0.35;;
6249;SDS011;3158;52.148;11.568;2023-07-31T02:21:43;0.45;;;0.45;;
6249;SDS011;3158;52.148;11.568;2023-07-31T02:26:44;0.52;;;0.40;;
6249;SDS011;3158;52.148;11.568;2023-07-31T02:31:45;0.50;;;0.45;;
6249;SDS011;3158;52.148;11.568;2023-07-31T02:36:46;0.30;;;0.30;;
6249;SDS011;3158;52.148;11.568;2023-07-31T02:41:47;1.00;;;0.40;;
6249;SDS011;3158;52.148;11.568;2023-07-31T02:46:48;2.45;;;0.38;;
6249;SDS011;3158;52.148;11.568;2023-07-31T02:51:50;2.95;;;0.75;;
6249;SDS011;3158;52.148;11.568;2023-07-31T02:56:51;0.20;;;0.20;;
6249;SDS011;3158;52.148;11.568;2023-07-31T03:01:52;0.22;;;0.22;;
6249;SDS011;3158;52.148;11.568;2023-07-31T03:06:53;0.20;;;0.20;;
6249;SDS011;3158;52.148;11.568;2023-07-31T03:11:54;0.20;;;0.20;;
6249;SDS011;3158;52.148;11.568;2023-07-31T03:16:56;2.08;;;0.20;;
6249;SDS011;3158;52.148;11.568;2023-07-31T03:21:57;0.20;;;0.20;;
6249;SDS011;3158;52.148;11.568;2023-07-31T03:26:58;0.10;;;0.10;;
6249;SDS011;3158;52.148;11.568;2023-07-31T03:32:01;0.10;;;0.10;;
6249;SDS011;3158;52.148;11.568;2023-07-31T03:37:02;0.20;;;0.20;;
6249;SDS011;3158;52.148;11.568;2023-07-31T03:42:05;0.10;;;0.10;;
6249;SDS011;3158;52.148;11.568;2023-07-31T03:47:06;0.00;;;0.00;;
6249;SDS011;3158;52.148;11.568;2023-07-31T03:52:07;0.00;;;0.00;;
6249;SDS011;3158;52.148;11.568;2023-07-31T03:57:08;1.27;;;0.35;;
6249;SDS011;3158;52.148;11.568;2023-07-31T04:02:09;0.10;;;0.10;;
6249;SDS011;3158;52.148;11.568;2023-07-31T04:07:10;0.10;;;0.10;;
6249;SDS011;3158;52.148;11.568;2023-07-31T04:12:11;0.08;;;0.08;;
6249;SDS011;3158;52.148;11.568;2023-07-31T04:17:12;0.10;;;0.10;;
6249;SDS011;3158;52.148;11.568;2023-07-31T04:22:13;0.05;;;0.05;;
6249;SDS011;3158;52.148;11.568;2023-07-31T04:27:14;0.65;;;0.20;;
6249;SDS011;3158;52.148;11.568;2023-07-31T04:32:16;0.03;;;0.03;;
6249;SDS011;3158;52.148;11.568;2023-07-31T04:37:17;0.10;;;0.10;;
6249;SDS011;3158;52.148;11.568;2023-07-31T04:42:18;0.40;;;0.10;;
6249;SDS011;3158;52.148;11.568;2023-07-31T04:47:19;0.08;;;0.08;;
6249;SDS011;3158;52.148;11.568;2023-07-31T04:52:20;1.65;;;0.17;;
6249;SDS011;3158;52.148;11.568;2023-07-31T04:57:21;0.10;;;0.10;;
6249;SDS011;3158;52.148;11.568;2023-07-31T05:02:22;0.13;;;0.13;;
6249;SDS011;3158;52.148;11.568;2023-07-31T05:07:24;0.20;;;0.20;;
6249;SDS011;3158;52.148;11.568;2023-07-31T05:12:25;0.20;;;0.20;;
6249;SDS011;3158;52.148;11.568;2023-07-31T05:17:26;0.10;;;0.10;;
6249;SDS011;3158;52.148;11.568;2023-07-31T05:22:27;0.20;;;0.20;;
6249;SDS011;3158;52.148;11.568;2023-07-31T05:27:29;3.30;;;0.20;;
6249;SDS011;3158;52.148;11.568;2023-07-31T05:32:30;0.20;;;0.20;;
6249;SDS011;3158;52.148;11.568;2023-07-31T05:37:31;0.82;;;0.25;;
6249;SDS011;3158;52.148;11.568;2023-07-31T05:42:32;2.53;;;0.10;;
6249;SDS011;3158;52.148;11.568;2023-07-31T05:47:34;0.20;;;0.20;;
6249;SDS011;3158;52.148;11.568;2023-07-31T05:52:35;0.30;;;0.20;;
6249;SDS011;3158;52.148;11.568;2023-07-31T05:57:37;0.10;;;0.10;;
6249;SDS011;3158;52.148;11.568;2023-07-31T06:02:38;1.90;;;0.10;;
6249;SDS011;3158;52.148;11.568;2023-07-31T06:07:39;0.05;;;0.05;;
6249;SDS011;3158;52.148;11.568;2023-07-31T06:12:40;0.10;;;0.10;;
6249;SDS011;3158;52.148;11.568;2023-07-31T06:17:41;2.63;;;0.20;;
6249;SDS011;3158;52.148;11.568;2023-07-31T06:22:43;0.10;;;0.10;;
6249;SDS011;3158;52.148;11.568;2023-07-31T06:27:44;0.10;;;0.10;;
6249;SDS011;3158;52.148;11.568;2023-07-31T06:32:45;0.10;;;0.10;;
6249;SDS011;3158;52.148;11.568;2023-07-31T06:37:46;0.10;;;0.10;;
6249;SDS011;3158;52.148;11.568;2023-07-31T06:42:47;0.08;;;0.08;;
6249;SDS011;3158;52.148;11.568;2023-07-31T06:47:48;0.43;;;0.15;;
6249;SDS011;3158;52.148;11.568;2023-07-31T06:52:49;7.15;;;0.40;;
6249;SDS011;3158;52.148;11.568;2023-07-31T06:57:51;0.10;;;0.10;;
6249;SDS011;3158;52.148;11.568;2023-07-31T07:02:52;0.03;;;0.03;;
6249;SDS011;3158;52.148;11.568;2023-07-31T07:07:53;0.10;;;0.10;;
6249;SDS011;3158;52.148;11.568;2023-07-31T07:12:54;0.10;;;0.10;;
6249;SDS011;3158;52.148;11.568;2023-07-31T07:17:55;0.10;;;0.10;;
6249;SDS011;3158;52.148;11.568;2023-07-31T07:22:56;0.35;;;0.35;;
6249;SDS011;3158;52.148;11.568;2023-07-31T07:27:57;0.20;;;0.20;;
6249;SDS011;3158;52.148;11.568;2023-07-31T07:32:59;0.10;;;0.10;;
6249;SDS011;3158;52.148;11.568;2023-07-31T07:38:00;0.30;;;0.30;;
6249;SDS011;3158;52.148;11.568;2023-07-31T07:43:01;0.10;;;0.10;;
6249;SDS011;3158;52.148;11.568;2023-07-31T07:48:02;0.38;;;0.22;;
6249;SDS011;3158;52.148;11.568;2023-07-31T07:53:03;1.15;;;0.17;;
6249;SDS011;3158;52.148;11.568;2023-07-31T07:58:04;0.05;;;0.05;;
6249;SDS011;3158;52.148;11.568;2023-07-31T08:03:05;0.13;;;0.13;;
6249;SDS011;3158;52.148;11.568;2023-07-31T08:08:06;0.10;;;0.10;;
6249;SDS011;3158;52.148;11.568;2023-07-31T08:13:09;0.10;;;0.10;;
6249;SDS011;3158;52.148;11.568;2023-07-31T08:18:11;0.22;;;0.22;;
6249;SDS011;3158;52.148;11.568;2023-07-31T08:23:12;0.40;;;0.20;;
6249;SDS011;3158;52.148;11.568;2023-07-31T08:28:14;0.40;;;0.40;;
6249;SDS011;3158;52.148;11.568;2023-07-31T08:33:15;0.65;;;0.40;;
6249;SDS011;3158;52.148;11.568;2023-07-31T08:38:16;0.60;;;0.60;;
6249;SDS011;3158;52.148;11.568;2023-07-31T08:43:18;2.90;;;0.77;;
6249;SDS011;3158;52.148;11.568;2023-07-31T08:48:20;0.85;;;0.68;;
6249;SDS011;3158;52.148;11.568;2023-07-31T08:53:22;4.35;;;1.13;;
6249;SDS011;3158;52.148;11.568;2023-07-31T08:58:23;7.25;;;1.13;;
6249;SDS011;3158;52.148;11.568;2023-07-31T09:03:24;1.77;;;0.70;;
6249;SDS011;3158;52.148;11.568;2023-07-31T09:08:26;2.03;;;0.93;;
6249;SDS011;3158;52.148;11.568;2023-07-31T09:13:31;1.65;;;0.70;;
6249;SDS011;3158;52.148;11.568;2023-07-31T09:18:32;1.58;;;0.75;;
6249;SDS011;3158;52.148;11.568;2023-07-31T09:23:53;3.45;;;0.80;;
6249;SDS011;3158;52.148;11.568;2023-07-31T09:28:54;1.23;;;0.80;;
6249;SDS011;3158;52.148;11.568;2023-07-31T09:33:55;8.60;;;0.93;;
6249;SDS011;3158;52.148;11.568;2023-07-31T09:39:01;1.50;;;0.90;;
6249;SDS011;3158;52.148;11.568;2023-07-31T09:44:03;0.70;;;0.70;;
6249;SDS011;3158;52.148;11.568;2023-07-31T09:49:10;0.82;;;0.82;;
6249;SDS011;3158;52.148;11.568;2023-07-31T09:54:12;1.98;;;0.80;;
6249;SDS011;3158;52.148;11.568;2023-07-31T09:59:22;4.53;;;1.70;;
6249;SDS011;3158;52.148;11.568;2023-07-31T10:04:25;2.38;;;0.75;;
6249;SDS011;3158;52.148;11.568;2023-07-31T10:09:28;0.90;;;0.75;;
6249;SDS011;3158;52.148;11.568;2023-07-31T10:14:30;0.60;;;0.60;;
6249;SDS011;3158;52.148;11.568;2023-07-31T10:19:31;0.82;;;0.80;;
6249;SDS011;3158;52.148;11.568;2023-07-31T10:24:33;2.20;;;0.90;;
6249;SDS011;3158;52.148;11.568;2023-07-31T10:29:35;0.85;;;0.60;;
6249;SDS011;3158;52.148;11.568;2023-07-31T10:34:37;0.80;;;0.80;;
6249;SDS011;3158;52.148;11.568;2023-07-31T10:39:39;3.80;;;0.93;;
6249;SDS011;3158;52.148;11.568;2023-07-31T10:44:44;0.50;;;0.50;;
6249;SDS011;3158;52.148;11.568;2023-07-31T10:49:47;3.22;;;0.70;;
6249;SDS011;3158;52.148;11.568;2023-07-31T10:54:49;0.82;;;0.60;;
6249;SDS011;3158;52.148;11.568;2023-07-31T10:59:50;0.60;;;0.60;;
6249;SDS011;3158;52.148;11.568;2023-07-31T11:05:10;2.53;;;0.43;;
6249;SDS011;3158;52.148;11.568;2023-07-31T11:10:11;3.13;;;0.40;;
6249;SDS011;3158;52.148;11.568;2023-07-31T11:15:16;0.30;;;0.30;;
6249;SDS011;3158;52.148;11.568;2023-07-31T11:20:17;1.00;;;0.43;;
6249;SDS011;3158;52.148;11.568;2023-07-31T11:25:18;0.45;;;0.45;;
6249;SDS011;3158;52.148;11.568;2023-07-31T11:30:20;1.70;;;0.68;;
6249;SDS011;3158;52.148;11.568;2023-07-31T11:35:21;1.05;;;0.50;;
6249;SDS011;3158;52.148;11.568;2023-07-31T11:40:22;0.90;;;0.65;;
6249;SDS011;3158;52.148;11.568;2023-07-31T11:45:28;2.15;;;0.40;;
6249;SDS011;3158;52.148;11.568;2023-07-31T11:50:30;0.50;;;0.50;;
6249;SDS011;3158;52.148;11.568;2023-07-31T11:55:34;2.15;;;0.63;;
6249;SDS011;3158;52.148;11.568;2023-07-31T12:00:35;6.63;;;0.68;;
6249;SDS011;3158;52.148;11.568;2023-07-31T12:05:37;0.80;;;0.40;;
6249;SDS011;3158;52.148;11.568;2023-07-31T12:10:38;0.40;;;0.40;;
6249;SDS011;3158;52.148;11.568;2023-07-31T12:15:41;1.00;;;0.40;;
6249;SDS011;3158;52.148;11.568;2023-07-31T12:20:43;1.05;;;0.50;;
6249;SDS011;3158;52.148;11.568;2023-07-31T12:25:45;0.40;;;0.40;;
6249;SDS011;3158;52.148;11.568;2023-07-31T12:30:46;2.85;;;0.88;;
6249;SDS011;3158;52.148;11.568;2023-07-31T12:35:47;0.60;;;0.60;;
6249;SDS011;3158;52.148;11.568;2023-07-31T12:40:48;0.50;;;0.43;;
6249;SDS011;3158;52.148;11.568;2023-07-31T12:45:49;0.38;;;0.38;;
6249;SDS011;3158;52.148;11.568;2023-07-31T12:50:50;0.85;;;0.50;;
6249;SDS011;3158;52.148;11.568;2023-07-31T12:55:51;0.73;;;0.30;;
6249;SDS011;3158;52.148;11.568;2023-07-31T13:00:52;1.38;;;0.45;;
6249;SDS011;3158;52.148;11.568;2023-07-31T13:05:53;0.40;;;0.40;;
6249;SDS011;3158;52.148;11.568;2023-07-31T13:10:55;0.43;;;0.43;;
6249;SDS011;3158;52.148;11.568;2023-07-31T13:15:56;1.67;;;0.60;;
6249;SDS011;3158;52.148;11.568;2023-07-31T13:20:57;1.63;;;0.70;;
6249;SDS011;3158;52.148;11.568;2023-07-31T13:25:58;0.40;;;0.40;;
6249;SDS011;3158;52.148;11.568;2023-07-31T13:30:59;2.38;;;0.40;;
6249;SDS011;3158;52.148;11.568;2023-07-31T13:36:00;0.70;;;0.70;;
6249;SDS011;3158;52.148;11.568;2023-07-31T13:41:02;0.60;;;0.60;;
6249;SDS011;3158;52.148;11.568;2023-07-31T13:46:03;2.38;;;0.60;;
6249;SDS011;3158;52.148;11.568;2023-07-31T13:51:06;1.40;;;0.70;;
6249;SDS011;3158;52.148;11.568;2023-07-31T13:56:08;0.50;;;0.43;;
6249;SDS011;3158;52.148;11.568;2023-07-31T14:01:09;0.98;;;0.35;;
6249;SDS011;3158;52.148;11.568;2023-07-31T14:06:10;0.80;;;0.80;;
6249;SDS011;3158;52.148;11.568;2023-07-31T14:11:11;0.85;;;0.38;;
6249;SDS011;3158;52.148;11.568;2023-07-31T14:16:13;0.40;;;0.40;;
6249;SDS011;3158;52.148;11.568;2023-07-31T14:21:14;0.50;;;0.50;;
6249;SDS011;3158;52.148;11.568;2023-07-31T14:26:15;0.47;;;0.47;;
6249;SDS011;3158;52.148;11.568;2023-07-31T14:31:16;0.50;;;0.50;;
6249;SDS011;3158;52.148;11.568;2023-07-31T14:36:18;0.40;;;0.40;;
6249;SDS011;3158;52.148;11.568;2023-07-31T14:41:19;0.30;;;0.30;;
6249;SDS011;3158;52.148;11.568;2023-07-31T14:46:20;0.25;;;0.25;;
6249;SDS011;3158;52.148;11.568;2023-07-31T14:51:21;0.30;;;0.30;;
6249;SDS011;3158;52.148;11.568;2023-07-31T14:56:22;0.32;;;0.32;;
6249;SDS011;3158;52.148;11.568;2023-07-31T15:01:23;0.22;;;0.22;;
6249;SDS011;3158;52.148;11.568;2023-07-31T15:06:24;0.20;;;0.20;;
6249;SDS011;3158;52.148;11.568;2023-07-31T15:11:26;0.10;;;0.10;;
6249;SDS011;3158;52.148;11.568;2023-07-31T15:16:27;0.13;;;0.13;;
6249;SDS011;3158;52.148;11.568;2023-07-31T15:21:29;0.75;;;0.17;;
6249;SDS011;3158;52.148;11.568;2023-07-31T15:26:30;0.10;;;0.10;;
6249;SDS011;3158;52.148;11.568;2023-07-31T15:31:31;0.20;;;0.20;;
6249;SDS011;3158;52.148;11.568;2023-07-31T15:36:32;0.10;;;0.10;;
6249;SDS011;3158;52.148;11.568;2023-07-31T15:41:34;0.20;;;0.20;;
6249;SDS011;3158;52.148;11.568;2023-07-31T15:46:35;0.20;;;0.20;;
6249;SDS011;3158;52.148;11.568;2023-07-31T15:51:37;0.30;;;0.30;;
6249;SDS011;3158;52.148;11.568;2023-07-31T15:56:38;0.20;;;0.20;;
6249;SDS011;3158;52.148;11.568;2023-07-31T16:01:39;0.25;;;0.25;;
6249;SDS011;3158;52.148;11.568;2023-07-31T16:06:40;0.35;;;0.30;;
6249;SDS011;3158;52.148;11.568;2023-07-31T16:11:41;0.52;;;0.30;;
6249;SDS011;3158;52.148;11.568;2023-07-31T16:16:42;0.25;;;0.22;;
6249;SDS011;3158;52.148;11.568;2023-07-31T16:21:44;0.38;;;0.38;;
6249;SDS011;3158;52.148;11.568;2023-07-31T16:26:45;0.30;;;0.30;;
6249;SDS011;3158;52.148;11.568;2023-07-31T16:31:46;0.20;;;0.20;;
6249;SDS011;3158;52.148;11.568;2023-07-31T16:36:47;2.20;;;0.57;;
6249;SDS011;3158;52.148;11.568;2023-07-31T16:41:48;0.32;;;0.30;;
6249;SDS011;3158;52.148;11.568;2023-07-31T16:46:49;0.40;;;0.40;;
6249;SDS011;3158;52.148;11.568;2023-07-31T16:51:51;0.50;;;0.50;;
6249;SDS011;3158;52.148;11.568;2023-07-31T16:56:52;0.50;;;0.50;;
6249;SDS011;3158;52.148;11.568;2023-07-31T17:01:53;0.47;;;0.30;;
6249;SDS011;3158;52.148;11.568;2023-07-31T17:06:54;0.40;;;0.40;;
6249;SDS011;3158;52.148;11.568;2023-07-31T17:11:55;0.50;;;0.50;;
6249;SDS011;3158;52.148;11.568;2023-07-31T17:16:56;0.30;;;0.30;;
6249;SDS011;3158;52.148;11.568;2023-07-31T17:21:57;0.75;;;0.60;;
6249;SDS011;3158;52.148;11.568;2023-07-31T17:26:59;0.38;;;0.38;;
6249;SDS011;3158;52.148;11.568;2023-07-31T17:32:00;2.17;;;0.40;;
6249;SDS011;3158;52.148;11.568;2023-07-31T17:37:01;0.32;;;0.32;;
6249;SDS011;3158;52.148;11.568;2023-07-31T17:42:02;0.35;;;0.35;;
6249;SDS011;3158;52.148;11.568;2023-07-31T17:47:03;0.25;;;0.25;;
6249;SDS011;3158;52.148;11.568;2023-07-31T17:52:05;0.30;;;0.30;;
6249;SDS011;3158;52.148;11.568;2023-07-31T17:57:06;0.30;;;0.30;;
6249;SDS011;3158;52.148;11.568;2023-07-31T18:02:07;0.20;;;0.20;;
6249;SDS011;3158;52.148;11.568;2023-07-31T18:07:08;0.43;;;0.30;;
6249;SDS011;3158;52.148;11.568;2023-07-31T18:12:09;0.30;;;0.30;;
6249;SDS011;3158;52.148;11.568;2023-07-31T18:17:10;0.30;;;0.30;;
6249;SDS011;3158;52.148;11.568;2023-07-31T18:22:12;0.30;;;0.30;;
6249;SDS011;3158;52.148;11.568;2023-07-31T18:27:13;0.30;;;0.30;;
6249;SDS011;3158;52.148;11.568;2023-07-31T18:32:14;0.80;;;0.40;;
6249;SDS011;3158;52.148;11.568;2023-07-31T18:37:16;0.30;;;0.30;;
6249;SDS011;3158;52.148;11.568;2023-07-31T18:42:17;0.40;;;0.40;;
6249;SDS011;3158;52.148;11.568;2023-07-31T18:47:19;0.85;;;0.40;;
6249;SDS011;3158;52.148;11.568;2023-07-31T18:52:20;0.68;;;0.60;;
6249;SDS011;3158;52.148;11.568;2023-07-31T18:57:21;0.22;;;0.22;;
6249;SDS011;3158;52.148;11.568;2023-07-31T19:02:22;0.35;;;0.35;;
6249;SDS011;3158;52.148;11.568;2023-07-31T19:07:23;0.40;;;0.40;;
6249;SDS011;3158;52.148;11.568;2023-07-31T19:12:25;1.85;;;0.40;;
6249;SDS011;3158;52.148;11.568;2023-07-31T19:17:26;0.52;;;0.35;;
6249;SDS011;3158;52.148;11.568;2023-07-31T19:22:27;0.65;;;0.30;;
6249;SDS011;3158;52.148;11.568;2023-07-31T19:27:28;0.70;;;0.52;;
6249;SDS011;3158;52.148;11.568;2023-07-31T19:32:29;0.73;;;0.57;;
6249;SDS011;3158;52.148;11.568;2023-07-31T19:37:30;0.30;;;0.30;;
6249;SDS011;3158;52.148;11.568;2023-07-31T19:42:31;0.40;;;0.40;;
6249;SDS011;3158;52.148;11.568;2023-07-31T19:47:35;1.50;;;0.30;;
6249;SDS011;3158;52.148;11.568;2023-07-31T19:52:36;0.50;;;0.50;;
6249;SDS011;3158;52.148;11.568;2023-07-31T19:57:38;0.90;;;0.90;;
6249;SDS011;3158;52.148;11.568;2023-07-31T20:02:39;2.95;;;0.80;;
6249;SDS011;3158;52.148;11.568;2023-07-31T20:07:40;0.50;;;0.45;;
6249;SDS011;3158;52.148;11.568;2023-07-31T20:12:43;0.32;;;0.30;;
6249;SDS011;3158;52.148;11.568;2023-07-31T20:17:44;0.50;;;0.50;;
6249;SDS011;3158;52.148;11.568;2023-07-31T20:22:45;0.50;;;0.50;;
6249;SDS011;3158;52.148;11.568;2023-07-31T20:27:46;1.77;;;0.63;;
6249;SDS011;3158;52.148;11.568;2023-07-31T20:32:47;0.60;;;0.60;;
6249;SDS011;3158;52.148;11.568;2023-07-31T20:37:48;1.30;;;0.50;;
6249;SDS011;3158;52.148;11.568;2023-07-31T20:42:56;1.23;;;0.70;;
6249;SDS011;3158;52.148;11.568;2023-07-31T20:47:57;1.60;;;1.08;;
6249;SDS011;3158;52.148;11.568;2023-07-31T20:53:01;1.55;;;1.45;;
6249;SDS011;3158;52.148;11.568;2023-07-31T20:58:03;0.70;;;0.70;;
6249;SDS011;3158;52.148;11.568;2023-07-31T21:03:04;0.40;;;0.40;;
6249;SDS011;3158;52.148;11.568;2023-07-31T21:08:06;1.17;;;0.65;;
6249;SDS011;3158;52.148;11.568;2023-07-31T21:13:07;3.80;;;0.60;;
6249;SDS011;3158;52.148;11.568;2023-07-31T21:18:09;0.90;;;0.90;;
6249;SDS011;3158;52.148;11.568;2023-07-31T21:23:10;4.25;;;1.15;;
6249;SDS011;3158;52.148;11.568;2023-07-31T21:28:11;0.80;;;0.80;;
6249;SDS011;3158;52.148;11.568;2023-07-31T21:33:12;0.45;;;0.45;;
6249;SDS011;3158;52.148;11.568;2023-07-31T21:38:13;0.70;;;0.70;;
6249;SDS011;3158;52.148;11.568;2023-07-31T21:43:16;0.88;;;0.65;;
6249;SDS011;3158;52.148;11.568;2023-07-31T21:48:17;2.70;;;0.90;;
6249;SDS011;3158;52.148;11.568;2023-07-31T21:53:18;0.68;;;0.68;;
6249;SDS011;3158;52.148;11.568;2023-07-31T21:58:19;0.68;;;0.50;;
6249;SDS011;3158;52.148;11.568;2023-07-31T22:03:20;0.47;;;0.47;;
6249;SDS011;3158;52.148;11.568;2023-07-31T22:08:21;1.00;;;0.73;;
6249;SDS011;3158;52.148;11.568;2023-07-31T22:13:22;0.57;;;0.57;;
6249;SDS011;3158;52.148;11.568;2023-07-31T22:18:23;0.70;;;0.70;;
6249;SDS011;3158;52.148;11.568;2023-07-31T22:23:24;3.72;;;0.63;;
6249;SDS011;3158;52.148;11.568;2023-07-31T22:28:25;1.50;;;0.60;;
6249;SDS011;3158;52.148;11.568;2023-07-31T22:33:26;0.70;;;0.70;;
6249;SDS011;3158;52.148;11.568;2023-07-31T22:38:27;0.40;;;0.40;;
6249;SDS011;3158;52.148;11.568;2023-07-31T22:43:28;0.50;;;0.30;;
6249;SDS011;3158;52.148;11.568;2023-07-31T22:48:29;0.47;;;0.47;;
6249;SDS011;3158;52.148;11.568;2023-07-31T22:53:30;0.50;;;0.50;;
6249;SDS011;3158;52.148;11.568;2023-07-31T22:58:33;4.40;;;0.60;;
6249;SDS011;3158;52.148;11.568;2023-07-31T23:03:34;0.50;;;0.50;;
6249;SDS011;3158;52.148;11.568;2023-07-31T23:08:35;0.55;;;0.55;;
6249;SDS011;3158;52.148;11.568;2023-07-31T23:13:36;0.52;;;0.52;;
6249;SDS011;3158;52.148;11.568;2023-07-31T23:18:38;1.15;;;0.60;;
6249;SDS011;3158;52.148;11.568;2023-07-31T23:23:39;0.38;;;0.38;;
6249;SDS011;3158;52.148;11.568;2023-07-31T23:28:40;4.45;;;0.57;;
6249;SDS011;3158;52.148;11.568;2023-07-31T23:33:41;0.40;;;0.40;;
6249;SDS011;3158;52.148;11.568;2023-07-31T23:38:42;3.65;;;0.57;;
6249;SDS011;3158;52.148;11.568;2023-07-31T23:43:43;3.80;;;0.30;;
6249;SDS011;3158;52.148;11.568;2023-07-31T23:48:44;0.30;;;0.30;;
6249;SDS011;3158;52.148;11.568;2023-07-31T23:53:45;0.30;;;0.30;;
6249;SDS011;3158;52.148;11.568;2023-07-31T23:58:46;0.35;;;0.30;;
